Time;durP1;ratioP1;P1;durP2;ratioP2;P2;SDS_P1;SDS_P2;PMS_P1;PMS_P2;Temp;Humidity;BMP_temperature;BMP_pressure;BME280_temperature;BME280_humidity;BME280_pressure;Samples;Min_cycle;Max_cycle;Signal;HPM_P1;HPM_P2
2021/12/11 00:00:18;;;;;;;3.33;2.65;;;;;;;;;;5053968;28;20205;-67
2021/12/11 00:02:44;;;;;;;2.17;1.98;;;;;;;;;;5053926;28;20181;-67
2021/12/11 00:05:12;;;;;;;2.70;1.70;;;;;;;;;;5053950;28;20216;-66
2021/12/11 00:07:37;;;;;;;1.60;1.50;;;;;;;;;;5053885;28;20181;-66
2021/12/11 00:10:10;;;;;;;1.77;1.67;;;;;;;;;;5054110;28;20177;-66
2021/12/11 00:12:40;;;;;;;1.60;1.30;;;;;;;;;;5052488;28;20659;-66
2021/12/11 00:15:11;;;;;;;1.42;1.15;;;;;;;;;;5053678;28;20711;-67
2021/12/11 00:17:36;;;;;;;1.08;1.08;;;;;;;;;;5053656;28;20189;-67
2021/12/11 00:20:04;;;;;;;0.90;0.90;;;;;;;;;;5053658;28;20189;-66
2021/12/11 00:22:31;;;;;;;1.10;1.10;;;;;;;;;;5053649;28;20654;-67
2021/12/11 00:25:14;;;;;;;0.82;0.82;;;;;;;;;;5053548;28;20169;-68
2021/12/11 00:27:42;;;;;;;0.90;0.90;;;;;;;;;;5053608;28;20200;-70
2021/12/11 00:30:10;;;;;;;0.73;0.73;;;;;;;;;;5053543;28;20667;-67
2021/12/11 00:32:36;;;;;;;0.80;0.80;;;;;;;;;;5053304;28;20170;-66
2021/12/11 00:35:13;;;;;;;1.00;1.00;;;;;;;;;;5053367;28;20158;-66
2021/12/11 00:37:39;;;;;;;0.98;0.98;;;;;;;;;;5053272;28;20193;-66
2021/12/11 00:40:09;;;;;;;0.82;0.82;;;;;;;;;;5053259;28;20174;-66
2021/12/11 00:42:34;;;;;;;2.50;1.02;;;;;;;;;;5054101;28;20162;-67
2021/12/11 00:45:09;;;;;;;0.98;0.98;;;;;;;;;;5053460;28;20170;-66
2021/12/11 00:47:34;;;;;;;4.80;3.20;;;;;;;;;;5053040;28;20162;-67
2021/12/11 00:50:04;;;;;;;11.45;6.60;;;;;;;;;;5053338;28;20180;-66
2021/12/11 00:52:30;;;;;;;5.15;4.38;;;;;;;;;;5053226;28;20181;-66
2021/12/11 00:54:56;;;;;;;4.72;2.40;;;;;;;;;;5053437;28;20172;-67
2021/12/11 00:57:22;;;;;;;1.50;1.38;;;;;;;;;;5052814;28;20570;-67
2021/12/11 00:59:57;;;;;;;1.85;1.67;;;;;;;;;;5052887;28;20162;-66
2021/12/11 01:02:22;;;;;;;0.90;0.82;;;;;;;;;;5052831;28;20189;-66
2021/12/11 01:04:47;;;;;;;0.95;0.80;;;;;;;;;;5052875;28;20208;-66
2021/12/11 01:07:19;;;;;;;0.82;0.82;;;;;;;;;;5053050;28;20212;-66
2021/12/11 01:09:53;;;;;;;0.95;0.95;;;;;;;;;;5052725;28;20162;-66
2021/12/11 01:12:45;;;;;;;1.40;0.80;;;;;;;;;;5052630;28;20198;-66
2021/12/11 01:15:19;;;;;;;0.93;0.93;;;;;;;;;;5052562;28;20210;-67
2021/12/11 01:17:59;;;;;;;1.00;1.00;;;;;;;;;;5052916;28;20213;-66
2021/12/11 01:20:36;;;;;;;0.60;0.60;;;;;;;;;;5052828;28;20589;-66
2021/12/11 01:23:14;;;;;;;1.33;0.88;;;;;;;;;;5052878;28;20154;-66
2021/12/11 01:25:39;;;;;;;0.77;0.77;;;;;;;;;;5052732;28;20256;-67
2021/12/11 01:28:04;;;;;;;0.80;0.80;;;;;;;;;;5052503;28;20714;-65
2021/12/11 01:30:34;;;;;;;1.40;1.30;;;;;;;;;;5052354;28;20170;-65
2021/12/11 01:33:00;;;;;;;1.42;1.10;;;;;;;;;;5052180;28;20700;-66
2021/12/11 01:35:27;;;;;;;0.90;0.90;;;;;;;;;;5052258;28;20162;-65
2021/12/11 01:37:59;;;;;;;0.85;0.85;;;;;;;;;;5052086;28;20684;-65
2021/12/11 01:40:27;;;;;;;1.35;0.93;;;;;;;;;;5052371;28;20204;-65
2021/12/11 01:42:53;;;;;;;2.08;0.90;;;;;;;;;;5052268;28;20670;-65
2021/12/11 01:45:18;;;;;;;1.20;1.10;;;;;;;;;;5052156;28;20170;-65
2021/12/11 01:47:45;;;;;;;1.13;1.13;;;;;;;;;;5052053;28;20174;-67
2021/12/11 01:50:20;;;;;;;1.25;1.00;;;;;;;;;;5052076;28;20166;-66
2021/12/11 01:52:48;;;;;;;0.90;0.90;;;;;;;;;;5052180;28;20248;-66
2021/12/11 01:55:53;;;;;;;0.90;0.90;;;;;;;;;;5051964;28;20713;-65
2021/12/11 01:58:26;;;;;;;0.80;0.80;;;;;;;;;;5049834;28;20173;-66
2021/12/11 02:00:55;;;;;;;1.20;1.10;;;;;;;;;;5049849;28;20162;-65
2021/12/11 02:03:27;;;;;;;1.05;1.00;;;;;;;;;;5050985;28;20190;-66
2021/12/11 02:05:53;;;;;;;1.08;1.00;;;;;;;;;;5052050;28;20194;-66
2021/12/11 02:08:19;;;;;;;1.08;1.00;;;;;;;;;;5051825;28;20178;-66
2021/12/11 02:10:56;;;;;;;0.85;0.85;;;;;;;;;;5051859;28;20197;-66
2021/12/11 02:13:36;;;;;;;0.90;0.90;;;;;;;;;;5051865;28;20187;-66
2021/12/11 02:16:01;;;;;;;0.82;0.82;;;;;;;;;;5053196;28;20197;-66
2021/12/11 02:18:34;;;;;;;0.93;0.93;;;;;;;;;;5056229;28;20580;-66
2021/12/11 02:21:03;;;;;;;0.98;0.93;;;;;;;;;;5056032;28;20150;-66
2021/12/11 02:23:28;;;;;;;1.10;1.10;;;;;;;;;;5055858;28;20535;-66
2021/12/11 02:25:55;;;;;;;1.00;0.95;;;;;;;;;;5055853;28;20713;-66
2021/12/11 02:28:41;;;;;;;1.00;1.00;;;;;;;;;;5055772;28;20192;-66
2021/12/11 02:31:28;;;;;;;0.80;0.80;;;;;;;;;;5055720;28;20674;-66
2021/12/11 02:34:08;;;;;;;1.67;0.80;;;;;;;;;;5055534;28;20193;-66
2021/12/11 02:36:45;;;;;;;1.17;0.88;;;;;;;;;;5055534;28;20235;-66
2021/12/11 02:39:10;;;;;;;1.20;0.85;;;;;;;;;;5055590;28;20150;-66
2021/12/11 02:41:49;;;;;;;0.70;0.70;;;;;;;;;;5055811;28;20728;-66
2021/12/11 02:44:29;;;;;;;0.93;0.93;;;;;;;;;;5055811;28;20150;-67
2021/12/11 02:47:00;;;;;;;0.90;0.90;;;;;;;;;;5055685;28;20182;-66
2021/12/11 02:49:29;;;;;;;1.00;1.00;;;;;;;;;;5055571;28;20184;-67
2021/12/11 02:51:54;;;;;;;0.90;0.90;;;;;;;;;;5055399;28;20694;-66
2021/12/11 02:54:22;;;;;;;1.13;1.13;;;;;;;;;;5055303;28;20208;-66
2021/12/11 02:56:51;;;;;;;1.23;1.17;;;;;;;;;;5055087;28;20213;-67
2021/12/11 02:59:17;;;;;;;1.70;1.55;;;;;;;;;;5055436;28;20165;-67
2021/12/11 03:01:45;;;;;;;1.10;1.10;;;;;;;;;;5055191;28;20555;-66
2021/12/11 03:04:22;;;;;;;2.67;1.27;;;;;;;;;;5055350;28;20169;-67
2021/12/11 03:06:50;;;;;;;1.60;1.60;;;;;;;;;;5055157;28;20150;-66
2021/12/11 03:09:18;;;;;;;1.45;1.42;;;;;;;;;;5055048;28;20170;-66
2021/12/11 03:11:44;;;;;;;0.95;0.95;;;;;;;;;;5054905;28;20260;-66
2021/12/11 03:14:12;;;;;;;1.80;1.70;;;;;;;;;;5055119;28;20284;-66
2021/12/11 03:16:39;;;;;;;4.57;0.90;;;;;;;;;;5054812;28;20189;-66
2021/12/11 03:19:06;;;;;;;1.23;0.80;;;;;;;;;;5054834;28;20231;-67
2021/12/11 03:21:31;;;;;;;0.90;0.90;;;;;;;;;;5055074;28;20196;-67
2021/12/11 03:23:57;;;;;;;0.93;0.93;;;;;;;;;;5054717;28;20675;-66
2021/12/11 03:26:23;;;;;;;1.65;0.90;;;;;;;;;;5054905;28;20181;-67
2021/12/11 03:28:48;;;;;;;1.48;1.10;;;;;;;;;;5053380;28;20322;-66
2021/12/11 03:31:15;;;;;;;0.93;0.93;;;;;;;;;;5054585;28;20162;-67
2021/12/11 03:33:43;;;;;;;0.88;0.88;;;;;;;;;;5054398;28;20190;-67
2021/12/11 03:36:10;;;;;;;0.70;0.70;;;;;;;;;;5054375;28;20202;-67
2021/12/11 03:38:37;;;;;;;1.13;1.02;;;;;;;;;;5054731;28;20182;-68
2021/12/11 03:41:03;;;;;;;0.90;0.90;;;;;;;;;;5053071;28;20231;-67
2021/12/11 03:43:29;;;;;;;0.75;0.75;;;;;;;;;;5054522;28;20208;-67
2021/12/11 03:45:56;;;;;;;1.15;1.00;;;;;;;;;;5054369;28;20206;-66
2021/12/11 03:48:44;;;;;;;0.82;0.82;;;;;;;;;;5054410;28;20636;-66
2021/12/11 03:51:11;;;;;;;0.73;0.73;;;;;;;;;;5054525;28;20166;-67
2021/12/11 03:53:36;;;;;;;5.35;3.60;;;;;;;;;;5054149;28;20182;-67
2021/12/11 03:56:05;;;;;;;8.35;3.83;;;;;;;;;;5054110;28;20197;-67
2021/12/11 03:58:30;;;;;;;7.10;4.53;;;;;;;;;;5054292;28;20689;-67
2021/12/11 04:01:00;;;;;;;7.35;4.70;;;;;;;;;;5054234;28;20253;-67
2021/12/11 04:03:28;;;;;;;11.68;5.63;;;;;;;;;;5053987;28;20257;-67
2021/12/11 04:05:54;;;;;;;9.10;5.03;;;;;;;;;;5053981;28;20188;-67
2021/12/11 04:08:21;;;;;;;9.38;5.65;;;;;;;;;;5053949;28;20687;-68
2021/12/11 04:10:46;;;;;;;6.45;4.60;;;;;;;;;;5053860;28;20177;-68
2021/12/11 04:13:13;;;;;;;7.80;4.82;;;;;;;;;;5054062;28;20178;-66
2021/12/11 04:15:40;;;;;;;9.88;5.10;;;;;;;;;;5053655;28;20265;-66
2021/12/11 04:18:06;;;;;;;7.07;5.18;;;;;;;;;;5053732;28;20206;-65
2021/12/11 04:20:36;;;;;;;9.57;4.88;;;;;;;;;;5053716;28;20205;-66
2021/12/11 04:23:02;;;;;;;4.20;3.75;;;;;;;;;;5053873;28;20193;-66
2021/12/11 04:25:27;;;;;;;3.88;2.50;;;;;;;;;;5053573;28;20682;-66
2021/12/11 04:27:54;;;;;;;2.50;1.73;;;;;;;;;;5053512;28;20174;-66
2021/12/11 04:30:20;;;;;;;1.35;1.20;;;;;;;;;;5053645;28;20174;-66
2021/12/11 04:32:46;;;;;;;0.98;0.95;;;;;;;;;;5053553;28;20189;-65
2021/12/11 04:35:16;;;;;;;10.35;5.72;;;;;;;;;;5053403;28;20589;-66
2021/12/11 04:37:41;;;;;;;12.40;6.65;;;;;;;;;;5053502;28;20193;-65
2021/12/11 04:40:19;;;;;;;12.38;8.57;;;;;;;;;;5052790;28;20678;-65
2021/12/11 04:45:22;;;;;;;9.60;6.65;;;;;;;;;;5053595;28;20157;-66
2021/12/11 04:47:57;;;;;;;15.35;8.05;;;;;;;;;;5053084;28;20190;-65
2021/12/11 04:50:38;;;;;;;13.57;8.68;;;;;;;;;;5053419;28;20173;-66
2021/12/11 04:53:07;;;;;;;12.50;8.35;;;;;;;;;;5053171;28;20169;-66
2021/12/11 04:58:26;;;;;;;14.05;8.40;;;;;;;;;;5053281;28;20196;-66
2021/12/11 05:11:15;;;;;;;28.80;13.48;;;;;;;;;;5052806;28;20216;-67
2021/12/11 05:13:40;;;;;;;27.73;14.77;;;;;;;;;;5052617;28;20170;-65
2021/12/11 05:16:09;;;;;;;29.67;13.77;;;;;;;;;;5052529;28;20200;-66
2021/12/11 05:18:35;;;;;;;18.92;11.23;;;;;;;;;;5052511;28;20177;-66
2021/12/11 05:21:03;;;;;;;9.48;6.35;;;;;;;;;;5051296;28;20167;-67
2021/12/11 05:23:29;;;;;;;0.75;0.75;;;;;;;;;;5052805;28;20173;-67
2021/12/11 05:25:55;;;;;;;1.92;1.83;;;;;;;;;;5052610;28;20166;-67
2021/12/11 05:28:20;;;;;;;11.35;4.25;;;;;;;;;;5052680;28;20644;-68
2021/12/11 05:30:47;;;;;;;7.45;4.60;;;;;;;;;;5052574;28;20570;-67
2021/12/11 05:33:13;;;;;;;13.93;7.22;;;;;;;;;;5052372;28;20186;-67
2021/12/11 05:35:39;;;;;;;22.67;11.25;;;;;;;;;;5052429;28;20181;-66
2021/12/11 05:38:06;;;;;;;19.60;11.75;;;;;;;;;;5052193;28;20162;-67
2021/12/11 05:40:33;;;;;;;18.15;9.98;;;;;;;;;;5052396;28;20169;-66
2021/12/11 05:42:58;;;;;;;23.67;13.32;;;;;;;;;;5052152;28;20166;-66
2021/12/11 05:45:24;;;;;;;23.30;12.95;;;;;;;;;;5052549;28;20212;-66
2021/12/11 05:47:49;;;;;;;19.10;13.23;;;;;;;;;;5052072;28;20173;-66
2021/12/11 05:50:17;;;;;;;23.88;12.85;;;;;;;;;;5051730;28;20166;-67
2021/12/11 05:52:43;;;;;;;22.65;13.75;;;;;;;;;;5051946;28;20613;-67
2021/12/11 05:55:13;;;;;;;22.27;13.45;;;;;;;;;;5052176;28;20181;-67
2021/12/11 05:57:38;;;;;;;33.75;17.77;;;;;;;;;;5052473;28;20337;-65
2021/12/11 06:00:06;;;;;;;33.08;18.10;;;;;;;;;;5051883;28;20249;-66
2021/12/11 06:02:31;;;;;;;30.65;20.02;;;;;;;;;;5051776;28;20178;-67
2021/12/11 06:04:58;;;;;;;37.13;23.77;;;;;;;;;;5052152;28;20166;-66
2021/12/11 06:07:25;;;;;;;30.40;18.58;;;;;;;;;;5052072;28;20200;-66
2021/12/11 06:09:54;;;;;;;39.88;23.58;;;;;;;;;;5052100;28;20182;-67
2021/12/11 06:12:20;;;;;;;54.45;30.98;;;;;;;;;;5051774;28;20169;-67
2021/12/11 06:14:47;;;;;;;41.38;24.85;;;;;;;;;;5051740;28;20194;-67
2021/12/11 06:17:15;;;;;;;33.67;20.88;;;;;;;;;;5051955;28;20282;-66
2021/12/11 06:19:43;;;;;;;31.00;20.33;;;;;;;;;;5051948;28;20177;-67
2021/12/11 06:22:09;;;;;;;34.47;20.88;;;;;;;;;;5051958;28;20178;-67
2021/12/11 06:24:34;;;;;;;30.50;19.25;;;;;;;;;;5051644;28;20173;-67
2021/12/11 06:27:00;;;;;;;28.38;18.02;;;;;;;;;;5051630;28;20558;-66
2021/12/11 06:29:26;;;;;;;23.98;18.15;;;;;;;;;;5050332;28;20199;-66
2021/12/11 06:31:52;;;;;;;27.05;18.98;;;;;;;;;;5051641;28;20170;-66
2021/12/11 06:34:17;;;;;;;32.83;18.27;;;;;;;;;;5051492;28;20243;-66
2021/12/11 06:36:43;;;;;;;36.50;22.83;;;;;;;;;;5051427;28;20185;-66
2021/12/11 06:39:11;;;;;;;36.78;22.17;;;;;;;;;;5051677;28;20165;-66
2021/12/11 06:41:37;;;;;;;36.00;25.27;;;;;;;;;;5051776;28;20174;-67
2021/12/11 06:44:03;;;;;;;40.22;22.73;;;;;;;;;;5051527;28;20162;-67
2021/12/11 06:46:30;;;;;;;43.17;24.77;;;;;;;;;;5051432;28;20181;-67
2021/12/11 06:48:56;;;;;;;34.75;23.10;;;;;;;;;;5051425;28;20162;-66
2021/12/11 06:51:21;;;;;;;35.72;23.40;;;;;;;;;;5051438;28;20170;-66
2021/12/11 06:53:49;;;;;;;35.10;21.67;;;;;;;;;;5051381;28;20613;-66
2021/12/11 06:56:15;;;;;;;32.83;21.23;;;;;;;;;;5051454;28;20193;-66
2021/12/11 06:58:41;;;;;;;33.28;22.05;;;;;;;;;;5051392;28;20215;-66
2021/12/11 07:01:07;;;;;;;41.88;26.70;;;;;;;;;;5051499;28;20166;-66
2021/12/11 07:03:33;;;;;;;36.53;26.10;;;;;;;;;;5054970;28;20252;-65
2021/12/11 07:05:58;;;;;;;62.88;36.25;;;;;;;;;;5055072;28;20204;-67
2021/12/11 07:08:26;;;;;;;55.78;33.95;;;;;;;;;;5055017;28;20624;-67
2021/12/11 07:10:51;;;;;;;83.03;46.75;;;;;;;;;;5054959;28;20223;-67
2021/12/11 07:13:16;;;;;;;40.65;28.77;;;;;;;;;;5054892;28;20604;-67
2021/12/11 07:15:42;;;;;;;43.47;27.63;;;;;;;;;;5054688;28;20193;-67
2021/12/11 07:18:07;;;;;;;27.05;20.48;;;;;;;;;;5055247;28;20166;-67
2021/12/11 07:20:33;;;;;;;35.58;22.17;;;;;;;;;;5054316;28;20185;-67
2021/12/11 07:22:58;;;;;;;38.13;25.17;;;;;;;;;;5055290;28;20166;-67
2021/12/11 07:25:27;;;;;;;39.70;26.23;;;;;;;;;;5055015;28;20166;-68
2021/12/11 07:27:54;;;;;;;40.15;26.42;;;;;;;;;;5053974;28;20211;-67
2021/12/11 07:30:20;;;;;;;33.75;24.98;;;;;;;;;;5054551;28;20559;-67
2021/12/11 07:32:45;;;;;;;37.58;23.45;;;;;;;;;;5054479;28;20181;-67
2021/12/11 07:35:11;;;;;;;43.90;29.15;;;;;;;;;;5054869;28;20146;-67
2021/12/11 07:37:36;;;;;;;48.47;29.10;;;;;;;;;;5054670;28;20682;-67
2021/12/11 07:40:04;;;;;;;44.97;28.23;;;;;;;;;;5054428;28;20648;-67
2021/12/11 07:42:29;;;;;;;43.78;27.40;;;;;;;;;;5054451;28;20169;-67
2021/12/11 07:44:54;;;;;;;110.63;59.83;;;;;;;;;;5054380;28;20166;-67
2021/12/11 07:47:20;;;;;;;57.17;34.83;;;;;;;;;;5054332;28;20201;-67
2021/12/11 07:49:45;;;;;;;51.33;32.25;;;;;;;;;;5054006;28;20724;-67
2021/12/11 07:52:10;;;;;;;55.92;32.63;;;;;;;;;;5053074;28;20174;-68
2021/12/11 07:54:35;;;;;;;49.00;29.75;;;;;;;;;;5053410;28;20655;-68
2021/12/11 07:57:01;;;;;;;51.97;31.55;;;;;;;;;;5053691;28;20186;-66
2021/12/11 07:59:26;;;;;;;46.88;29.00;;;;;;;;;;5053643;28;20332;-66
2021/12/11 08:01:52;;;;;;;52.45;30.27;;;;;;;;;;5053554;28;20217;-67
2021/12/11 08:04:18;;;;;;;49.78;28.70;;;;;;;;;;5053553;28;20169;-66
2021/12/11 08:06:44;;;;;;;47.85;28.50;;;;;;;;;;5053837;28;20177;-67
2021/12/11 08:09:11;;;;;;;53.22;32.22;;;;;;;;;;5053949;28;20547;-66
2021/12/11 08:11:37;;;;;;;53.88;32.08;;;;;;;;;;5053880;28;20174;-65
2021/12/11 08:14:03;;;;;;;57.80;33.97;;;;;;;;;;5052814;28;20582;-66
2021/12/11 08:16:32;;;;;;;83.75;44.10;;;;;;;;;;5053788;28;20193;-66
2021/12/11 08:18:57;;;;;;;85.80;45.10;;;;;;;;;;5053883;28;20162;-67
2021/12/11 08:21:23;;;;;;;93.75;46.30;;;;;;;;;;5053699;28;20166;-67
2021/12/11 08:23:54;;;;;;;105.55;50.40;;;;;;;;;;5053855;28;20174;-67
2021/12/11 08:26:20;;;;;;;133.27;66.75;;;;;;;;;;5053861;28;20595;-68
2021/12/11 08:28:48;;;;;;;104.82;50.53;;;;;;;;;;5053492;28;20564;-67
2021/12/11 08:31:14;;;;;;;109.70;56.80;;;;;;;;;;5053511;28;20166;-68
2021/12/11 08:33:40;;;;;;;91.75;46.30;;;;;;;;;;5053467;28;20194;-67
2021/12/11 08:36:05;;;;;;;78.65;45.28;;;;;;;;;;5053325;28;20189;-68
2021/12/11 08:38:30;;;;;;;100.82;52.63;;;;;;;;;;5053303;28;20170;-66
2021/12/11 08:40:57;;;;;;;104.53;57.55;;;;;;;;;;5053565;28;20252;-66
2021/12/11 08:43:23;;;;;;;87.47;49.13;;;;;;;;;;5053520;28;20651;-66
2021/12/11 08:46:07;;;;;;;77.28;45.28;;;;;;;;;;5051991;28;20189;-66
2021/12/11 08:48:32;;;;;;;72.57;45.75;;;;;;;;;;5053423;28;20221;-67
2021/12/11 08:51:01;;;;;;;78.45;45.38;;;;;;;;;;5053118;28;20261;-68
2021/12/11 08:53:27;;;;;;;82.93;49.58;;;;;;;;;;5053334;28;20170;-66
2021/12/11 08:55:54;;;;;;;78.75;46.63;;;;;;;;;;5053215;28;20177;-66
2021/12/11 08:58:19;;;;;;;71.65;43.75;;;;;;;;;;5053234;28;20529;-66
2021/12/11 09:00:48;;;;;;;66.82;42.65;;;;;;;;;;5052866;28;20230;-66
2021/12/11 09:03:16;;;;;;;68.47;41.70;;;;;;;;;;5053143;28;20319;-67
2021/12/11 09:06:01;;;;;;;76.38;46.00;;;;;;;;;;5052851;28;20530;-66
2021/12/11 09:08:39;;;;;;;72.03;40.08;;;;;;;;;;5051829;28;20660;-67
2021/12/11 09:11:10;;;;;;;68.70;35.97;;;;;;;;;;5052777;28;20169;-68
2021/12/11 09:13:58;;;;;;;52.05;28.50;;;;;;;;;;5052928;28;20174;-68
2021/12/11 09:16:26;;;;;;;36.50;21.30;;;;;;;;;;5052847;28;20185;-67
2021/12/11 09:18:54;;;;;;;40.90;22.40;;;;;;;;;;5052589;28;20654;-67
2021/12/11 09:21:27;;;;;;;42.88;25.92;;;;;;;;;;5052441;28;20658;-67
2021/12/11 09:24:04;;;;;;;38.90;21.55;;;;;;;;;;5053321;28;20176;-67
2021/12/11 09:26:39;;;;;;;46.42;24.33;;;;;;;;;;5052641;28;20559;-67
2021/12/11 09:29:24;;;;;;;32.88;19.52;;;;;;;;;;5052776;28;20161;-67
2021/12/11 09:31:58;;;;;;;23.98;15.50;;;;;;;;;;5052156;28;20303;-68
2021/12/11 09:34:27;;;;;;;25.88;16.25;;;;;;;;;;5052421;28;20193;-68
2021/12/11 09:36:57;;;;;;;27.95;18.42;;;;;;;;;;5053024;28;20208;-67
2021/12/11 09:39:25;;;;;;;26.05;16.27;;;;;;;;;;5052366;28;20165;-67
2021/12/11 09:41:50;;;;;;;22.67;15.55;;;;;;;;;;5051938;28;20685;-61
2021/12/11 09:44:20;;;;;;;25.63;18.37;;;;;;;;;;5051799;28;20198;-66
2021/12/11 09:46:46;;;;;;;30.00;14.73;;;;;;;;;;5052354;28;20400;-66
2021/12/11 09:49:12;;;;;;;18.27;10.75;;;;;;;;;;5052187;28;20177;-66
2021/12/11 09:51:42;;;;;;;22.67;10.50;;;;;;;;;;5050863;28;20180;-66
2021/12/11 09:54:09;;;;;;;18.25;11.85;;;;;;;;;;5052068;28;20170;-66
2021/12/11 09:56:38;;;;;;;19.45;15.32;;;;;;;;;;5051945;28;20724;-67
2021/12/11 09:59:05;;;;;;;24.77;13.38;;;;;;;;;;5052110;28;20177;-66
2021/12/11 10:01:33;;;;;;;30.67;17.50;;;;;;;;;;5050640;28;20568;-66
2021/12/11 10:04:01;;;;;;;15.32;10.00;;;;;;;;;;5052183;28;20181;-66
2021/12/11 10:09:21;;;;;;;20.17;11.10;;;;;;;;;;5052428;28;20223;-66
2021/12/11 10:11:52;;;;;;;23.70;15.43;;;;;;;;;;5052139;28;20227;-66
2021/12/11 10:14:19;;;;;;;19.85;13.70;;;;;;;;;;5051794;28;20204;-66
2021/12/11 10:16:46;;;;;;;40.70;25.48;;;;;;;;;;5052012;28;20718;-66
2021/12/11 10:19:13;;;;;;;17.75;11.00;;;;;;;;;;5051761;28;20174;-66
2021/12/11 10:21:41;;;;;;;16.77;11.07;;;;;;;;;;5050508;28;20571;-66
2021/12/11 10:24:08;;;;;;;19.85;10.15;;;;;;;;;;5051766;28;20169;-66
2021/12/11 10:26:34;;;;;;;19.45;9.57;;;;;;;;;;5052031;28;20182;-66
2021/12/11 10:29:01;;;;;;;17.73;10.90;;;;;;;;;;5052009;28;20177;-66
2021/12/11 10:31:35;;;;;;;17.38;10.27;;;;;;;;;;5051720;28;20227;-66
2021/12/11 10:34:02;;;;;;;22.92;12.30;;;;;;;;;;5051582;28;20201;-67
2021/12/11 10:36:31;;;;;;;21.25;14.10;;;;;;;;;;5051996;28;20194;-67
2021/12/11 10:38:57;;;;;;;14.73;8.32;;;;;;;;;;5055650;28;20162;-68
2021/12/11 10:41:23;;;;;;;10.15;6.57;;;;;;;;;;5055492;28;20173;-67
2021/12/11 10:43:54;;;;;;;24.45;12.32;;;;;;;;;;5055452;28;20184;-67
2021/12/11 10:46:22;;;;;;;19.02;9.93;;;;;;;;;;5055699;28;20162;-67
2021/12/11 10:48:48;;;;;;;26.95;11.60;;;;;;;;;;5055756;28;20631;-67
2021/12/11 10:51:17;;;;;;;20.13;11.77;;;;;;;;;;5055360;28;20178;-67
2021/12/11 10:53:46;;;;;;;21.92;11.75;;;;;;;;;;5055614;28;20181;-67
2021/12/11 10:56:15;;;;;;;16.40;9.93;;;;;;;;;;5055265;28;20189;-67
2021/12/11 10:58:42;;;;;;;18.05;11.00;;;;;;;;;;5055660;28;20194;-67
2021/12/11 11:01:12;;;;;;;18.90;12.63;;;;;;;;;;5055484;28;20666;-68
2021/12/11 11:03:40;;;;;;;34.42;21.77;;;;;;;;;;5055463;28;20161;-67
2021/12/11 11:06:07;;;;;;;27.45;16.63;;;;;;;;;;5055066;28;20174;-67
2021/12/11 11:08:32;;;;;;;12.98;8.40;;;;;;;;;;5055371;28;20185;-68
2021/12/11 11:11:01;;;;;;;14.07;8.75;;;;;;;;;;5055068;28;20178;-68
2021/12/11 11:13:26;;;;;;;11.98;7.22;;;;;;;;;;5055246;28;20178;-66
2021/12/11 11:15:53;;;;;;;16.88;9.48;;;;;;;;;;5054837;28;20687;-67
2021/12/11 11:18:19;;;;;;;12.73;8.40;;;;;;;;;;5054952;28;20170;-66
2021/12/11 11:20:47;;;;;;;14.15;9.90;;;;;;;;;;5054799;28;20173;-66
2021/12/11 11:23:13;;;;;;;10.50;7.28;;;;;;;;;;5054819;28;20181;-67
2021/12/11 11:25:41;;;;;;;10.25;7.00;;;;;;;;;;5054707;28;20248;-67
2021/12/11 11:28:08;;;;;;;11.20;6.43;;;;;;;;;;5054934;28;20190;-67
2021/12/11 11:30:38;;;;;;;11.60;5.35;;;;;;;;;;5053397;28;20264;-67
2021/12/11 11:33:05;;;;;;;15.88;11.85;;;;;;;;;;5054455;28;20594;-67
2021/12/11 11:35:32;;;;;;;13.52;9.40;;;;;;;;;;5055075;28;20529;-66
2021/12/11 11:38:01;;;;;;;11.15;6.88;;;;;;;;;;5054430;28;20198;-68
2021/12/11 11:40:28;;;;;;;14.57;8.30;;;;;;;;;;5054523;28;20177;-67
2021/12/11 11:42:56;;;;;;;26.85;14.32;;;;;;;;;;5054498;28;20189;-68
2021/12/11 11:45:21;;;;;;;10.30;6.15;;;;;;;;;;5054591;28;20165;-67
2021/12/11 11:47:47;;;;;;;7.55;5.93;;;;;;;;;;5053631;28;20182;-67
2021/12/11 11:50:14;;;;;;;11.13;7.38;;;;;;;;;;5053744;28;20178;-67
2021/12/11 11:52:41;;;;;;;10.43;7.80;;;;;;;;;;5054219;28;20291;-67
2021/12/11 11:55:10;;;;;;;8.20;6.50;;;;;;;;;;5054448;28;20209;-67
2021/12/11 11:57:41;;;;;;;8.95;5.80;;;;;;;;;;5054088;28;20193;-66
2021/12/11 12:00:12;;;;;;;15.52;8.07;;;;;;;;;;5054137;28;20166;-67
2021/12/11 12:02:39;;;;;;;14.02;8.85;;;;;;;;;;5053949;28;20162;-67
2021/12/11 12:05:05;;;;;;;11.13;8.85;;;;;;;;;;5054316;28;20608;-68
2021/12/11 12:07:31;;;;;;;13.05;8.50;;;;;;;;;;5054163;28;20192;-67
2021/12/11 12:10:19;;;;;;;19.05;10.88;;;;;;;;;;5054135;28;20181;-67
2021/12/11 12:12:45;;;;;;;20.50;13.27;;;;;;;;;;5053676;28;20196;-67
2021/12/11 12:15:13;;;;;;;18.38;12.15;;;;;;;;;;5053661;28;20280;-68
2021/12/11 12:17:38;;;;;;;14.02;10.95;;;;;;;;;;5053922;28;20198;-67
2021/12/11 12:20:07;;;;;;;19.67;13.13;;;;;;;;;;5054240;28;20172;-68
2021/12/11 12:22:32;;;;;;;8.20;5.65;;;;;;;;;;5053639;28;20170;-67
2021/12/11 12:24:58;;;;;;;15.73;7.20;;;;;;;;;;5053506;28;20683;-67
2021/12/11 12:27:26;;;;;;;13.75;10.48;;;;;;;;;;5053804;28;20193;-67
2021/12/11 12:29:51;;;;;;;22.50;16.25;;;;;;;;;;5053515;28;20229;-67
2021/12/11 12:32:18;;;;;;;22.77;16.13;;;;;;;;;;5053653;28;20173;-67
2021/12/11 12:34:44;;;;;;;19.95;15.90;;;;;;;;;;5053339;28;20266;-67
2021/12/11 12:37:10;;;;;;;25.60;14.98;;;;;;;;;;5053507;28;20698;-68
2021/12/11 12:39:39;;;;;;;22.30;16.38;;;;;;;;;;5053348;28;20214;-67
2021/12/11 12:42:19;;;;;;;26.15;18.83;;;;;;;;;;5053562;28;20177;-68
2021/12/11 12:44:50;;;;;;;34.92;22.70;;;;;;;;;;5053230;28;20518;-68
2021/12/11 12:47:18;;;;;;;36.13;23.42;;;;;;;;;;5053286;28;20189;-67
2021/12/11 12:49:45;;;;;;;16.48;12.50;;;;;;;;;;5052927;28;20266;-66
2021/12/11 12:52:23;;;;;;;16.90;8.93;;;;;;;;;;5052909;28;20261;-67
2021/12/11 12:54:49;;;;;;;25.23;12.77;;;;;;;;;;5053325;28;20196;-66
2021/12/11 12:57:18;;;;;;;17.10;11.63;;;;;;;;;;5053148;28;20583;-66
2021/12/11 12:59:56;;;;;;;17.83;10.88;;;;;;;;;;5052839;28;20208;-66
2021/12/11 13:02:23;;;;;;;23.15;15.65;;;;;;;;;;5052752;28;20587;-67
2021/12/11 13:04:51;;;;;;;10.73;7.32;;;;;;;;;;5053051;28;20243;-66
2021/12/11 13:07:17;;;;;;;26.25;20.50;;;;;;;;;;5053162;28;20173;-68
2021/12/11 13:09:43;;;;;;;19.50;13.82;;;;;;;;;;5052842;28;20170;-66
2021/12/11 13:12:08;;;;;;;30.88;23.13;;;;;;;;;;5052760;28;20691;-67
2021/12/11 13:14:33;;;;;;;39.67;26.70;;;;;;;;;;5052575;28;20193;-66
2021/12/11 13:17:10;;;;;;;27.65;18.73;;;;;;;;;;5052537;28;20292;-66
2021/12/11 13:19:56;;;;;;;60.00;31.42;;;;;;;;;;5052575;28;20165;-66
2021/12/11 13:22:23;;;;;;;72.35;34.38;;;;;;;;;;5052777;28;20250;-66
2021/12/11 13:24:51;;;;;;;50.85;24.98;;;;;;;;;;5052499;28;20329;-66
2021/12/11 13:27:22;;;;;;;31.38;19.42;;;;;;;;;;5052768;28;20173;-67
2021/12/11 13:29:52;;;;;;;31.33;18.35;;;;;;;;;;5052472;28;20181;-66
2021/12/11 13:32:19;;;;;;;32.03;18.42;;;;;;;;;;5052614;28;20181;-66
2021/12/11 13:34:46;;;;;;;39.90;21.63;;;;;;;;;;5052267;28;20185;-67
2021/12/11 13:37:12;;;;;;;52.70;31.58;;;;;;;;;;5052168;28;20186;-66
2021/12/11 13:39:41;;;;;;;66.53;35.88;;;;;;;;;;5052195;28;20202;-67
2021/12/11 13:42:09;;;;;;;94.00;48.95;;;;;;;;;;5052363;28;20177;-67
2021/12/11 13:44:37;;;;;;;100.80;42.58;;;;;;;;;;5052115;28;20184;-67
2021/12/11 13:47:05;;;;;;;89.13;41.05;;;;;;;;;;5052331;28;20174;-67
2021/12/11 13:49:30;;;;;;;106.38;47.33;;;;;;;;;;5052089;28;20170;-66
2021/12/11 13:51:55;;;;;;;126.40;55.17;;;;;;;;;;5052053;28;20188;-68
2021/12/11 13:54:22;;;;;;;159.27;65.28;;;;;;;;;;5052003;28;20165;-68
2021/12/11 13:56:50;;;;;;;49.55;28.02;;;;;;;;;;5051882;28;20197;-68
2021/12/11 13:59:15;;;;;;;41.70;25.77;;;;;;;;;;5052116;28;20162;-67
2021/12/11 14:01:41;;;;;;;43.33;27.67;;;;;;;;;;5051732;28;20196;-66
2021/12/11 14:04:09;;;;;;;46.80;28.40;;;;;;;;;;5052003;28;20174;-67
2021/12/11 14:06:34;;;;;;;47.90;28.95;;;;;;;;;;5052185;28;20178;-67
2021/12/11 14:09:06;;;;;;;54.75;33.50;;;;;;;;;;5051828;28;20705;-65
2021/12/11 14:11:36;;;;;;;60.92;33.28;;;;;;;;;;5051593;28;20642;-68
2021/12/11 14:14:02;;;;;;;59.75;35.20;;;;;;;;;;5050471;28;20724;-67
2021/12/11 14:16:27;;;;;;;47.95;27.42;;;;;;;;;;5051796;28;20229;-66
2021/12/11 14:18:54;;;;;;;28.67;16.40;;;;;;;;;;5052106;28;20235;-67
2021/12/11 14:21:20;;;;;;;26.08;12.38;;;;;;;;;;5052026;28;20174;-66
2021/12/11 14:23:50;;;;;;;15.95;8.43;;;;;;;;;;5051702;28;20200;-67
2021/12/11 14:26:15;;;;;;;10.63;6.30;;;;;;;;;;5051182;28;20158;-67
2021/12/11 14:28:41;;;;;;;10.07;6.05;;;;;;;;;;5051597;28;20265;-66
2021/12/11 14:31:10;;;;;;;6.22;4.25;;;;;;;;;;5051970;28;20178;-66
2021/12/11 14:33:36;;;;;;;10.10;5.57;;;;;;;;;;5051807;28;20218;-67
2021/12/11 14:36:02;;;;;;;10.70;6.90;;;;;;;;;;5051893;28;20598;-66
2021/12/11 14:38:28;;;;;;;10.90;8.13;;;;;;;;;;5051630;28;20158;-67
2021/12/11 14:40:54;;;;;;;16.90;10.02;;;;;;;;;;5051626;28;20558;-70
2021/12/11 14:43:22;;;;;;;27.63;18.58;;;;;;;;;;5052100;28;20178;-67
2021/12/11 14:45:49;;;;;;;30.63;21.70;;;;;;;;;;5051593;28;20308;-68
2021/12/11 14:48:14;;;;;;;38.38;23.27;;;;;;;;;;5050299;28;20214;-67
2021/12/11 14:51:00;;;;;;;33.05;20.13;;;;;;;;;;5051739;28;20166;-71